Time;durP1;ratioP1;P1;durP2;ratioP2;P2;SDS_P1;SDS_P2;PMS_P1;PMS_P2;Temp;Humidity;BMP_temperature;BMP_pressure;BME280_temperature;BME280_humidity;BME280_pressure;Samples;Min_cycle;Max_cycle;Signal;HPM_P1;HPM_P2
2023/02/11 00:02:00;;;;;;;32.70;19.20;;;;;;;0.41;67.46;100676.92;107230;1257;75119;-40
2023/02/11 00:04:28;;;;;;;33.80;18.50;;;;;;;0.39;67.54;100674.17;107230;1257;69916;-39
2023/02/11 00:06:57;;;;;;;31.00;18.80;;;;;;;0.38;67.59;100672.69;107111;1258;73907;-39
2023/02/11 00:09:29;;;;;;;33.30;19.00;;;;;;;0.41;67.51;100677.02;107228;1257;62365;-40
2023/02/11 00:11:58;;;;;;;;;;;;;;;0.47;67.51;100676.52;107274;1259;62502;-40
2023/02/11 00:14:27;;;;;;;32.70;17.60;;;;;;;0.43;67.71;100677.35;107243;1258;74062;-39
2023/02/11 00:16:56;;;;;;;34.80;18.50;;;;;;;0.38;67.79;100680.95;107257;1257;69933;-39
2023/02/11 00:19:24;;;;;;;34.00;18.20;;;;;;;0.39;67.93;100680.27;107226;1258;73883;-40
2023/02/11 00:21:53;;;;;;;31.80;18.20;;;;;;;0.36;67.74;100678.98;107223;1257;60807;-39
2023/02/11 00:24:21;;;;;;;39.70;19.20;;;;;;;0.33;67.82;100678.96;107232;1257;61345;-39
2023/02/11 00:26:50;;;;;;;32.40;19.30;;;;;;;0.31;67.94;100674.63;107214;1260;75013;-39
2023/02/11 00:29:19;;;;;;;33.20;19.30;;;;;;;0.26;67.96;100676.52;107228;1257;70046;-40
2023/02/11 00:31:47;;;;;;;34.30;19.40;;;;;;;0.22;68.27;100674.00;107215;1257;73877;-39
2023/02/11 00:34:15;;;;;;;32.40;18.70;;;;;;;0.25;68.26;100672.90;107140;1257;61162;-40
2023/02/11 00:36:44;;;;;;;31.00;19.00;;;;;;;0.33;68.23;100672.39;107093;1259;60550;-39
2023/02/11 00:39:15;;;;;;;32.80;19.20;;;;;;;0.34;68.14;100672.46;107154;1257;74819;-39
2023/02/11 00:41:43;;;;;;;33.40;19.40;;;;;;;0.32;68.32;100670.70;107242;1257;69958;-39
2023/02/11 00:44:13;;;;;;;32.60;18.40;;;;;;;0.30;68.56;100665.77;107094;1257;72438;-39
2023/02/11 00:46:41;;;;;;;33.70;18.90;;;;;;;0.28;68.53;100662.24;107184;1257;60742;-39
2023/02/11 00:49:10;;;;;;;29.50;15.40;;;;;;;0.24;68.68;100661.79;107201;1257;61172;-39
2023/02/11 00:51:40;;;;;;;35.60;19.80;;;;;;;0.20;68.90;100653.77;107230;1258;74744;-39
2023/02/11 00:54:08;;;;;;;34.10;19.20;;;;;;;0.17;69.00;100654.56;107191;1257;69967;-39
2023/02/11 00:56:37;;;;;;;30.20;19.20;;;;;;;0.20;69.01;100660.02;107059;1258;73615;-40
2023/02/11 00:59:05;;;;;;;34.70;19.50;;;;;;;0.27;69.07;100656.09;107249;1257;60320;-39
2023/02/11 01:01:34;;;;;;;32.20;19.40;;;;;;;0.27;68.97;100650.55;107120;1258;60508;-40
2023/02/11 01:04:03;;;;;;;29.80;18.50;;;;;;;0.26;69.19;100652.52;107166;1257;74254;-40
2023/02/11 01:06:32;;;;;;;35.00;19.70;;;;;;;0.24;69.19;100653.63;107147;1258;69983;-40
2023/02/11 01:09:00;;;;;;;34.30;19.80;;;;;;;0.23;69.44;100653.37;107232;1257;73856;-39
2023/02/11 01:11:33;;;;;;;36.60;20.00;;;;;;;0.22;69.52;100654.64;107110;1258;60443;-39
2023/02/11 01:14:02;;;;;;;37.90;20.20;;;;;;;0.20;69.57;100653.34;106349;1257;1002959;-40
2023/02/11 01:16:30;;;;;;;40.50;20.40;;;;;;;0.17;69.79;100652.59;107085;1259;75189;-40
2023/02/11 01:18:59;;;;;;;34.40;20.70;;;;;;;0.20;69.79;100655.27;107077;1261;69930;-40
2023/02/11 01:21:28;;;;;;;28.90;15.80;;;;;;;0.27;69.86;100655.89;107019;1257;73802;-40
2023/02/11 01:23:56;;;;;;;37.90;20.30;;;;;;;0.30;69.77;100659.80;107144;1258;60763;-40
2023/02/11 01:26:25;;;;;;;37.90;21.10;;;;;;;0.30;69.91;100661.56;107194;1258;61731;-40
2023/02/11 01:28:53;;;;;;;40.20;21.20;;;;;;;0.29;69.90;100652.65;107019;1257;75183;-40
2023/02/11 01:31:22;;;;;;;39.90;22.30;;;;;;;0.27;70.25;100654.18;107216;1258;69922;-39
2023/02/11 01:33:51;;;;;;;38.50;20.60;;;;;;;0.22;70.24;100652.23;106436;1259;1003522;-40
2023/02/11 01:36:21;;;;;;;38.80;21.90;;;;;;;0.22;70.35;100651.11;107094;1259;62176;-39
2023/02/11 01:38:50;;;;;;;36.30;20.50;;;;;;;0.26;70.42;100653.90;107168;1257;60419;-40
2023/02/11 01:41:20;;;;;;;41.90;21.70;;;;;;;0.28;70.55;100654.08;107082;1257;74955;-40
2023/02/11 01:43:49;;;;;;;43.40;23.30;;;;;;;0.27;70.66;100652.91;107138;1257;69953;-40
2023/02/11 01:46:31;;;;;;;39.00;21.70;;;;;;;0.24;70.61;100641.36;107340;1257;73785;-39
2023/02/11 01:49:07;;;;;;;39.10;21.60;;;;;;;0.18;70.71;100637.23;107391;1257;60489;-39
2023/02/11 01:52:00;;;;;;;42.20;22.60;;;;;;;0.10;71.13;100635.91;107308;1256;61521;-40
2023/02/11 01:57:20;;;;;;;41.50;21.50;;;;;;;0.10;71.25;100629.50;107233;1257;69934;-40
2023/02/11 02:00:05;;;;;;;40.50;21.70;;;;;;;0.03;71.42;100626.06;107248;1256;74028;-40
2023/02/11 02:02:53;;;;;;;38.90;20.80;;;;;;;-0.04;71.63;100620.21;107286;1256;60767;-40
2023/02/11 02:05:39;;;;;;;36.50;21.30;;;;;;;-0.12;71.82;100616.66;107211;1257;61644;-40
2023/02/11 02:08:16;;;;;;;43.40;23.50;;;;;;;-0.20;72.00;100614.15;107170;1256;74843;-40
2023/02/11 02:10:46;;;;;;;43.70;22.60;;;;;;;-0.26;71.89;100608.36;107344;1257;69957;-40
2023/02/11 02:13:17;;;;;;;40.30;22.50;;;;;;;-0.26;71.93;100612.31;106629;1256;1002986;-40
2023/02/11 02:15:58;;;;;;;41.80;23.20;;;;;;;-0.28;72.09;100614.84;107372;1256;60811;-40
2023/02/11 02:18:33;;;;;;;38.10;21.30;;;;;;;-0.30;72.01;100613.08;107410;1256;61522;-40
2023/02/11 02:21:20;;;;;;;43.60;22.60;;;;;;;-0.35;72.08;100610.98;107364;1259;74848;-40
2023/02/11 02:24:07;;;;;;;41.60;21.70;;;;;;;-0.40;71.77;100612.38;107395;1256;69912;-40
2023/02/11 02:26:45;;;;;;;43.80;23.50;;;;;;;-0.47;72.03;100610.88;107395;1256;73763;-40
2023/02/11 02:29:28;;;;;;;39.60;23.30;;;;;;;-0.49;71.87;100612.63;107350;1259;60717;-40
2023/02/11 02:32:25;;;;;;;43.70;22.70;;;;;;;-0.43;71.83;100612.67;107347;1256;61706;-40
2023/02/11 02:35:19;;;;;;;45.70;23.70;;;;;;;-0.52;71.87;100602.81;107227;1257;73774;-40
2023/02/11 02:37:56;;;;;;;43.30;22.90;;;;;;;-0.53;71.95;100611.48;107275;1256;69746;-40
2023/02/11 02:40:36;;;;;;;39.70;22.10;;;;;;;-0.59;72.23;100612.25;107278;1256;73897;-40
2023/02/11 02:43:04;;;;;;;46.70;24.50;;;;;;;-0.63;72.47;100614.61;107276;1257;62342;-40
2023/02/11 02:45:33;;;;;;;41.90;22.50;;;;;;;-0.68;72.27;100612.29;107091;1257;61459;-40
2023/02/11 02:48:01;;;;;;;45.60;23.30;;;;;;;-0.72;72.52;100607.66;107331;1257;75054;-40
2023/02/11 02:50:35;;;;;;;42.20;22.80;;;;;;;-0.71;72.65;100606.52;107337;1257;69942;-40
2023/02/11 02:53:26;;;;;;;42.70;23.10;;;;;;;-0.64;72.38;100608.90;107331;1256;72729;-40
2023/02/11 02:56:00;;;;;;;41.30;23.50;;;;;;;-0.65;72.37;100615.50;107261;1257;60812;-41
2023/02/11 02:58:47;;;;;;;50.10;23.50;;;;;;;-0.79;72.87;100598.30;107393;1257;60351;-40
2023/02/11 03:01:37;;;;;;;39.90;22.00;;;;;;;-0.73;73.12;100612.40;107372;1257;75085;-40
2023/02/11 03:04:18;;;;;;;45.70;23.90;;;;;;;-0.76;73.17;100608.44;107316;1259;69763;-40
2023/02/11 03:06:46;;;;;;;44.10;23.60;;;;;;;-0.77;73.08;100601.44;106597;1256;1003776;-40
2023/02/11 03:09:23;;;;;;;43.30;22.40;;;;;;;-0.76;72.99;100599.27;107348;1256;61120;-40
2023/02/11 03:11:51;;;;;;;46.30;23.80;;;;;;;-0.69;72.66;100591.55;107381;1260;60312;-40
2023/02/11 03:14:20;;;;;;;42.40;23.30;;;;;;;-0.67;72.80;100590.77;107299;1257;74056;-40
2023/02/11 03:16:49;;;;;;;45.30;23.20;;;;;;;-0.66;72.73;100591.80;107304;1256;69940;-40
2023/02/11 03:19:26;;;;;;;42.30;24.10;;;;;;;-0.64;72.55;100590.15;107166;1258;73226;-40
2023/02/11 03:21:54;;;;;;;39.20;22.90;;;;;;;-0.66;72.38;100589.70;107358;1260;61009;-40
2023/02/11 03:24:32;;;;;;;47.90;26.30;;;;;;;-0.69;72.12;100594.65;107339;1256;61373;-40
2023/02/11 03:27:06;;;;;;;45.40;25.20;;;;;;;-0.76;72.15;100589.80;107231;1257;75194;-40
2023/02/11 03:29:38;;;;;;;46.20;24.20;;;;;;;-0.82;72.12;100586.70;107280;1257;68309;-40
2023/02/11 03:32:14;;;;;;;43.60;23.40;;;;;;;-0.81;72.09;100582.63;107254;1256;73782;-40
2023/02/11 03:34:57;;;;;;;40.50;23.10;;;;;;;-0.75;71.95;100580.53;107200;1257;60835;-40
2023/02/11 03:37:50;;;;;;;42.50;23.50;;;;;;;-0.76;71.92;100580.58;107249;1257;61479;-40
2023/02/11 03:40:27;;;;;;;40.00;22.20;;;;;;;-0.79;72.01;100581.14;107239;1257;75656;-40
2023/02/11 03:43:02;;;;;;;40.10;24.00;;;;;;;-0.95;71.90;100560.77;107346;1257;70430;-40
2023/02/11 03:45:31;;;;;;;43.00;24.00;;;;;;;-0.94;72.29;100571.66;107363;1256;73950;-40
2023/02/11 03:48:03;;;;;;;40.30;23.30;;;;;;;-1.01;72.47;100567.81;107302;1256;61692;-40
2023/02/11 03:50:32;;;;;;;43.80;23.30;;;;;;;-1.06;72.56;100565.15;107362;1256;61533;-40
2023/02/11 03:53:00;;;;;;;37.70;21.90;;;;;;;-1.03;72.65;100563.81;107281;1258;75068;-40
2023/02/11 03:55:29;;;;;;;41.90;23.00;;;;;;;-1.03;72.81;100561.69;107456;1257;69935;-40
2023/02/11 03:57:57;;;;;;;41.20;23.90;;;;;;;-1.07;72.85;100563.89;107266;1257;73809;-40
2023/02/11 04:00:38;;;;;;;41.10;23.40;;;;;;;-1.11;72.96;100565.01;107390;1257;61239;-40
2023/02/11 04:03:07;;;;;;;45.90;24.70;;;;;;;-1.17;72.85;100557.09;107259;1256;61517;-40
2023/02/11 04:05:36;;;;;;;41.70;22.90;;;;;;;-1.24;73.13;100561.54;107310;1257;74987;-40
2023/02/11 04:08:04;;;;;;;42.30;23.40;;;;;;;-1.28;73.18;100550.86;107389;1257;69850;-40
2023/02/11 04:10:34;;;;;;;30.70;16.70;;;;;;;-1.28;73.07;100545.98;107331;1257;73625;-40
2023/02/11 04:13:02;;;;;;;40.70;21.60;;;;;;;-1.25;73.00;100539.19;107404;1257;60326;-40
2023/02/11 04:15:31;;;;;;;41.50;21.00;;;;;;;-1.26;72.98;100533.16;107389;1257;60767;-40
2023/02/11 04:18:02;;;;;;;38.80;21.50;;;;;;;-1.28;72.70;100525.65;107365;1257;75049;-40
2023/02/11 04:20:30;;;;;;;39.80;20.60;;;;;;;-1.34;72.77;100525.48;107341;1257;67633;-40
2023/02/11 04:22:58;;;;;;;39.10;20.40;;;;;;;-1.39;72.75;100524.48;107361;1257;73877;-40
2023/02/11 04:25:28;;;;;;;44.80;21.80;;;;;;;-1.43;72.81;100520.25;107398;1257;60542;-40
2023/02/11 04:27:56;;;;;;;44.30;22.10;;;;;;;-1.46;72.65;100521.34;107337;1257;61503;-40
2023/02/11 04:30:24;;;;;;;40.80;22.40;;;;;;;-1.51;72.79;100515.66;107360;1257;73896;-40
2023/02/11 04:32:53;;;;;;;43.20;22.90;;;;;;;-1.50;72.73;100513.21;107388;1257;68747;-40
2023/02/11 04:35:22;;;;;;;40.40;21.50;;;;;;;-1.44;72.75;100502.54;107345;1256;71548;-40
2023/02/11 04:37:50;;;;;;;35.80;19.20;;;;;;;-1.42;72.78;100505.58;107322;1257;60289;-40
2023/02/11 04:40:18;;;;;;;38.70;20.90;;;;;;;-1.47;72.39;100498.98;107283;1256;60497;-40
2023/02/11 04:42:47;;;;;;;39.90;20.50;;;;;;;-1.54;72.35;100504.13;107283;1256;75246;-40
2023/02/11 04:45:16;;;;;;;36.60;20.80;;;;;;;-1.61;72.29;100498.27;107324;1257;70181;-40
2023/02/11 04:47:44;;;;;;;34.30;20.10;;;;;;;-1.64;72.30;100497.17;107364;1257;73892;-40
2023/02/11 04:50:13;;;;;;;38.10;21.10;;;;;;;-1.67;72.01;100501.19;107282;1257;60574;-40
2023/02/11 04:52:41;;;;;;;38.30;21.70;;;;;;;-1.71;72.18;100502.21;107300;1257;61592;-40
2023/02/11 04:55:10;;;;;;;37.60;21.20;;;;;;;-1.72;72.00;100501.46;107245;1257;75121;-40
2023/02/11 04:57:39;;;;;;;27.70;15.50;;;;;;;-1.66;71.88;100495.62;107257;1257;70125;-40
2023/02/11 05:00:08;;;;;;;35.20;19.80;;;;;;;-1.63;71.96;100490.75;107281;1257;73870;-40
2023/02/11 05:02:37;;;;;;;;;;;;;;;-1.60;72.13;100493.86;107324;1257;60799;-40
2023/02/11 05:05:06;;;;;;;36.90;18.40;;;;;;;-1.66;72.22;100495.19;107305;1256;61311;-40
2023/02/11 05:07:34;;;;;;;29.70;15.30;;;;;;;-1.71;72.49;100495.23;107384;1257;75040;-41
2023/02/11 05:10:03;;;;;;;37.20;19.40;;;;;;;-1.67;72.58;100496.36;107385;1259;69919;-40
2023/02/11 05:12:32;;;;;;;35.80;20.20;;;;;;;-1.64;72.64;100493.57;107323;1256;73664;-40
2023/02/11 05:15:01;;;;;;;42.30;19.60;;;;;;;-1.58;72.89;100493.88;107315;1256;60428;-40
2023/02/11 05:17:30;;;;;;;36.70;19.60;;;;;;;-1.49;72.67;100485.90;107358;1257;60450;-40
2023/02/11 05:19:58;;;;;;;35.40;19.20;;;;;;;-1.39;72.52;100480.34;107297;1259;75004;-40
2023/02/11 05:22:27;;;;;;;38.70;19.50;;;;;;;-1.29;72.51;100474.84;107298;1256;68676;-40
2023/02/11 05:24:55;;;;;;;40.00;21.10;;;;;;;-1.23;72.53;100472.86;107351;1259;73298;-40
2023/02/11 05:27:24;;;;;;;37.90;20.00;;;;;;;-1.17;72.55;100475.34;107302;1257;60734;-40
2023/02/11 05:29:52;;;;;;;33.50;19.60;;;;;;;-1.12;72.48;100476.83;107283;1259;61330;-40
2023/02/11 05:32:20;;;;;;;37.80;20.20;;;;;;;-1.09;72.35;100478.23;106490;1256;1003039;-40
2023/02/11 05:34:49;;;;;;;35.90;19.90;;;;;;;-1.06;72.25;100473.67;107256;1257;69963;-40
2023/02/11 05:37:19;;;;;;;38.10;20.10;;;;;;;-1.04;72.21;100467.73;107274;1257;74959;-40
2023/02/11 05:39:48;;;;;;;40.10;21.50;;;;;;;-1.01;72.03;100467.22;107276;1256;62431;-40
2023/02/11 05:42:17;;;;;;;27.90;15.20;;;;;;;-0.91;71.98;100466.42;107264;1256;61526;-40
2023/02/11 05:44:45;;;;;;;38.20;19.30;;;;;;;-0.77;71.62;100467.79;107562;1256;73889;-40
2023/02/11 05:47:20;;;;;;;38.80;19.60;;;;;;;-0.68;71.56;100462.30;107642;1254;68547;-40
2023/02/11 05:49:48;;;;;;;41.20;19.30;;;;;;;-0.64;71.61;100451.03;107744;1256;73880;-40
2023/02/11 05:52:17;;;;;;;36.10;18.70;;;;;;;-0.62;71.46;100442.15;107702;1253;60655;-40
2023/02/11 05:54:45;;;;;;;34.70;18.20;;;;;;;-0.61;71.22;100437.41;106982;1254;1005142;-40
2023/02/11 05:57:14;;;;;;;37.40;18.60;;;;;;;-0.61;71.35;100439.08;107696;1252;74947;-40
2023/02/11 05:59:43;;;;;;;33.30;18.40;;;;;;;-0.60;71.41;100440.35;107649;1254;67966;-40
2023/02/11 06:02:12;;;;;;;32.80;18.50;;;;;;;-0.59;71.35;100439.02;107502;1254;73543;-40
2023/02/11 06:04:43;;;;;;;34.40;17.70;;;;;;;-0.56;71.17;100433.23;107584;1253;61573;-40
2023/02/11 06:07:13;;;;;;;31.30;17.70;;;;;;;-0.48;71.25;100421.59;107588;1254;61245;-40
2023/02/11 06:09:42;;;;;;;33.90;18.30;;;;;;;-0.45;71.19;100421.02;107551;1254;74092;-40
2023/02/11 06:12:11;;;;;;;33.00;18.30;;;;;;;-0.46;71.25;100415.59;107664;1254;67852;-40
2023/02/11 06:14:41;;;;;;;38.30;18.20;;;;;;;-0.47;71.05;100412.55;107641;1254;73834;-40
2023/02/11 06:17:09;;;;;;;35.10;18.00;;;;;;;-0.49;71.26;100411.95;107602;1253;60740;-40
2023/02/11 06:19:43;;;;;;;36.30;18.30;;;;;;;-0.49;71.57;100404.02;107690;1253;61305;-40
2023/02/11 06:22:11;;;;;;;35.20;18.30;;;;;;;-0.47;71.63;100397.36;106959;1252;1003297;-40
2023/02/11 06:24:40;;;;;;;31.10;18.00;;;;;;;-0.40;71.67;100393.61;107662;1254;69997;-40
2023/02/11 06:27:28;;;;;;;38.10;18.80;;;;;;;-0.26;71.82;100392.09;107617;1254;73960;-40
2023/02/11 06:29:57;;;;;;;35.80;18.80;;;;;;;-0.20;71.81;100392.92;107652;1254;60660;-40
2023/02/11 06:32:27;;;;;;;35.00;18.50;;;;;;;-0.16;71.77;100394.20;107708;1254;61278;-40
2023/02/11 06:35:13;;;;;;;33.00;19.30;;;;;;;-0.13;72.14;100383.39;107673;1256;75030;-40
2023/02/11 06:37:44;;;;;;;32.70;18.70;;;;;;;-0.11;72.04;100380.19;107637;1254;70048;-40
2023/02/11 06:40:13;;;;;;;42.20;19.10;;;;;;;-0.07;72.24;100376.95;107705;1253;73680;-40
2023/02/11 06:42:42;;;;;;;37.70;18.70;;;;;;;0.01;72.37;100385.76;107682;1254;61518;-40
2023/02/11 06:45:12;;;;;;;36.40;18.80;;;;;;;0.11;72.61;100386.78;107715;1257;61092;-40
2023/02/11 06:47:41;;;;;;;34.00;18.90;;;;;;;0.16;72.40;100380.55;107552;1254;74949;-40
2023/02/11 06:50:11;;;;;;;36.50;19.70;;;;;;;0.18;72.51;100378.09;107562;1253;69752;-40
2023/02/11 06:52:40;;;;;;;39.10;21.00;;;;;;;0.21;72.47;100372.82;107534;1254;71639;-40
2023/02/11 06:55:08;;;;;;;41.60;20.00;;;;;;;0.16;72.51;100365.25;107619;1254;60803;-40
2023/02/11 06:57:37;;;;;;;39.10;20.20;;;;;;;0.22;72.63;100378.73;107426;1253;187887;-40
2023/02/11 07:01:05;;;;;;;39.20;19.90;;;;;;;0.30;72.98;100373.40;104225;1293;600254;-40
2023/02/11 07:03:35;;;;;;;46.10;23.60;;;;;;;0.31;72.96;100377.36;106620;1270;60604;-41
2023/02/11 07:06:07;;;;;;;46.30;22.60;;;;;;;0.31;73.34;100379.38;106797;1265;61237;-40
2023/02/11 07:08:35;;;;;;;49.20;23.80;;;;;;;0.31;73.31;100377.45;106803;1265;72463;-40
2023/02/11 07:11:12;;;;;;;45.10;23.70;;;;;;;0.30;73.42;100369.89;106832;1266;67824;-41
2023/02/11 07:13:41;;;;;;;46.40;23.10;;;;;;;0.33;73.61;100366.68;106641;1267;219584;-40
2023/02/11 07:16:11;;;;;;;41.10;22.40;;;;;;;0.36;73.70;100364.77;106877;1267;60763;-40
2023/02/11 07:18:40;;;;;;;40.60;23.00;;;;;;;0.37;73.79;100366.58;106867;1262;61530;-40
2023/02/11 07:21:10;;;;;;;46.50;23.40;;;;;;;0.36;73.93;100366.20;106920;1264;73388;-40
2023/02/11 07:23:40;;;;;;;44.60;23.50;;;;;;;0.38;74.18;100361.63;106844;1263;68306;-40
2023/02/11 07:26:11;;;;;;;44.80;23.10;;;;;;;0.45;73.93;100363.48;107014;1262;72267;-40
2023/02/11 07:28:40;;;;;;;44.20;23.60;;;;;;;0.52;73.75;100364.23;106953;1261;60708;-40
2023/02/11 07:31:11;;;;;;;48.50;24.70;;;;;;;0.56;73.78;100364.53;107066;1261;61501;-40
2023/02/11 07:33:39;;;;;;;50.70;25.20;;;;;;;0.59;73.88;100358.08;107003;1260;74690;-40
2023/02/11 07:36:09;;;;;;;62.40;25.40;;;;;;;0.64;73.89;100356.41;107036;1261;70098;-40
2023/02/11 07:38:37;;;;;;;56.20;25.70;;;;;;;0.66;73.76;100350.23;107029;1261;73835;-40
2023/02/11 07:41:10;;;;;;;45.40;23.80;;;;;;;0.67;73.60;100345.15;107053;1260;62379;-41
2023/02/11 07:43:39;;;;;;;44.60;22.50;;;;;;;0.73;73.77;100338.09;107057;1261;61879;-40
2023/02/11 07:46:13;;;;;;;47.60;24.40;;;;;;;0.78;73.68;100326.66;107020;1260;73938;-40
2023/02/11 07:48:42;;;;;;;47.80;25.80;;;;;;;0.80;73.65;100316.83;107016;1263;69784;-40
2023/02/11 07:51:12;;;;;;;45.20;23.70;;;;;;;0.82;73.62;100308.55;107038;1261;72617;-40
2023/02/11 07:53:41;;;;;;;46.90;24.10;;;;;;;0.84;73.70;100302.61;107021;1259;60738;-40
2023/02/11 07:56:10;;;;;;;48.10;25.30;;;;;;;0.90;73.66;100299.02;107044;1260;61544;-40
2023/02/11 07:58:41;;;;;;;45.00;23.80;;;;;;;1.01;73.36;100300.95;107094;1259;71106;-41
2023/02/11 08:01:11;;;;;;;51.00;25.20;;;;;;;1.08;73.22;100294.47;107119;1259;68626;-40
2023/02/11 08:03:41;;;;;;;46.20;24.10;;;;;;;1.10;73.14;100292.38;107065;1260;72413;-40
2023/02/11 08:06:12;;;;;;;;;;;;;;;1.07;72.95;100294.52;107083;1263;60739;-41
2023/02/11 08:08:40;;;;;;;45.90;23.80;;;;;;;0.98;73.22;100296.42;107069;1260;59866;-40
2023/02/11 08:11:11;;;;;;;50.80;24.30;;;;;;;0.95;73.54;100290.99;107056;1261;74127;-40
2023/02/11 08:13:40;;;;;;;46.40;23.60;;;;;;;1.01;73.50;100280.81;107056;1260;69885;-40
2023/02/11 08:16:25;;;;;;;50.30;25.70;;;;;;;1.02;73.56;100278.14;106975;1260;73462;-40
2023/02/11 08:18:56;;;;;;;52.00;24.90;;;;;;;1.02;73.59;100282.41;106968;1261;61029;-40
2023/02/11 08:21:25;;;;;;;52.30;25.10;;;;;;;1.00;73.76;100285.59;107082;1259;59721;-40
2023/02/11 08:23:54;;;;;;;45.70;25.30;;;;;;;1.03;73.59;100284.40;107081;1261;74122;-40
2023/02/11 08:26:28;;;;;;;44.40;23.70;;;;;;;1.11;73.58;100281.52;107004;1260;69888;-40
2023/02/11 08:28:56;;;;;;;49.50;25.20;;;;;;;1.15;73.47;100280.71;106605;1257;1003811;-40
2023/02/11 08:31:27;;;;;;;50.60;26.50;;;;;;;1.15;73.38;100272.20;107364;1257;60727;-40
2023/02/11 08:33:57;;;;;;;53.60;25.80;;;;;;;1.16;73.50;100274.50;107366;1256;60292;-40
2023/02/11 08:36:27;;;;;;;51.70;25.00;;;;;;;1.17;73.56;100272.84;107336;1257;74079;-41
2023/02/11 08:39:04;;;;;;;49.70;25.40;;;;;;;1.23;73.42;100276.02;107483;1257;69873;-40
2023/02/11 08:41:55;;;;;;;44.70;23.40;;;;;;;1.32;73.21;100270.63;107417;1257;73874;-40
2023/02/11 08:44:24;;;;;;;43.20;23.80;;;;;;;1.33;73.23;100261.38;107451;1256;60690;-41
2023/02/11 08:46:52;;;;;;;47.70;24.30;;;;;;;1.34;72.98;100254.01;107469;1256;59700;-40
2023/02/11 08:49:21;;;;;;;45.30;24.80;;;;;;;1.35;73.02;100255.48;107453;1257;74233;-40
2023/02/11 08:51:50;;;;;;;48.20;25.80;;;;;;;1.43;72.85;100255.39;107293;1256;69969;-40
2023/02/11 08:54:18;;;;;;;48.90;25.10;;;;;;;1.50;72.70;100248.55;107376;1257;73737;-40
2023/02/11 08:56:50;;;;;;;47.60;25.50;;;;;;;1.52;72.36;100247.85;107355;1260;59760;-40
2023/02/11 08:59:18;;;;;;;44.60;24.70;;;;;;;1.52;72.04;100247.47;107368;1257;62153;-40
2023/02/11 09:01:47;;;;;;;49.00;24.40;;;;;;;1.49;72.31;100257.13;107380;1255;74048;-40
2023/02/11 09:04:16;;;;;;;43.30;23.90;;;;;;;1.49;72.02;100248.34;107382;1257;69917;-40
2023/02/11 09:06:46;;;;;;;41.20;24.60;;;;;;;1.52;72.13;100242.66;105951;1256;1003269;-40
2023/02/11 09:09:14;;;;;;;;;;;;;;;1.52;72.16;100237.21;107456;1256;59739;-40
2023/02/11 09:11:44;;;;;;;35.60;20.20;;;;;;;1.47;72.29;100229.71;107469;1257;61325;-40
2023/02/11 09:14:17;;;;;;;44.20;25.00;;;;;;;1.39;72.62;100215.08;107445;1254;74271;-41
2023/02/11 09:16:45;;;;;;;44.70;24.50;;;;;;;1.56;72.29;100220.45;107435;1257;69614;-40
2023/02/11 09:19:16;;;;;;;44.10;25.70;;;;;;;1.64;72.26;100215.41;107434;1257;73690;-40
2023/02/11 09:21:45;;;;;;;45.80;26.00;;;;;;;1.67;71.92;100219.83;107457;1255;59808;-40
2023/02/11 09:24:13;;;;;;;45.50;26.40;;;;;;;1.64;71.86;100217.99;107437;1259;61406;-40
2023/02/11 09:26:42;;;;;;;49.60;26.70;;;;;;;1.58;72.09;100214.18;107459;1257;74119;-40
2023/02/11 09:29:11;;;;;;;43.00;25.40;;;;;;;1.61;72.10;100210.37;107488;1257;69938;-40
2023/02/11 09:31:39;;;;;;;48.00;26.60;;;;;;;1.65;72.11;100213.33;107415;1257;73436;-40
2023/02/11 09:34:09;;;;;;;46.50;25.50;;;;;;;1.65;72.39;100204.52;107341;1257;60302;-40
2023/02/11 09:36:39;;;;;;;;;;;;;;;1.65;72.24;100197.71;107433;1257;59759;-40
2023/02/11 09:39:11;;;;;;;47.30;26.90;;;;;;;1.61;72.21;100186.84;107424;1257;74212;-40
2023/02/11 09:41:49;;;;;;;43.10;24.50;;;;;;;1.63;72.37;100177.69;107437;1257;69572;-39
2023/02/11 09:44:22;;;;;;;51.90;26.80;;;;;;;1.64;72.10;100167.84;107454;1257;73897;-40
2023/02/11 09:46:59;;;;;;;48.70;27.30;;;;;;;1.66;72.25;100165.96;107366;1256;59636;-40
2023/02/11 09:49:59;;;;;;;44.40;26.00;;;;;;;1.68;71.99;100155.37;107468;1256;60413;-40
2023/02/11 09:52:46;;;;;;;47.80;27.20;;;;;;;1.72;71.84;100155.96;107479;1256;74902;-40
2023/02/11 09:55:28;;;;;;;50.20;28.30;;;;;;;1.76;71.57;100155.29;107418;1256;67863;-39
2023/02/11 09:57:57;;;;;;;45.20;26.30;;;;;;;1.77;71.66;100151.16;107357;1257;72642;-42
2023/02/11 10:00:37;;;;;;;43.10;25.10;;;;;;;1.78;71.46;100151.35;107481;1256;60797;-40
2023/02/11 10:03:43;;;;;;;46.90;26.30;;;;;;;1.82;71.67;100143.14;107504;1256;61214;-40
2023/02/11 10:06:14;;;;;;;46.90;26.50;;;;;;;1.88;71.22;100137.84;107351;1256;73879;-40
2023/02/11 10:08:57;;;;;;;45.60;27.60;;;;;;;1.90;71.46;100127.65;107332;1256;69940;-39
2023/02/11 10:11:31;;;;;;;45.90;25.70;;;;;;;1.91;71.47;100121.07;107463;1256;73858;-39
2023/02/11 10:14:14;;;;;;;48.60;26.90;;;;;;;1.92;71.30;100115.40;107433;1257;59936;-39
2023/02/11 10:17:11;;;;;;;47.10;26.80;;;;;;;1.91;71.38;100109.85;107475;1256;61543;-40
2023/02/11 10:20:00;;;;;;;46.10;26.80;;;;;;;1.94;71.49;100109.48;107430;1256;74308;-40
2023/02/11 10:22:35;;;;;;;34.20;19.70;;;;;;;1.94;71.33;100105.41;107418;1257;69616;-40
2023/02/11 10:25:22;;;;;;;49.20;28.60;;;;;;;1.93;71.72;100099.45;107334;1255;72102;-40
2023/02/11 10:27:54;;;;;;;45.90;28.20;;;;;;;1.91;71.93;100095.83;107462;1255;59531;-40
2023/02/11 10:30:45;;;;;;;50.50;27.40;;;;;;;1.89;72.15;100091.63;107371;1257;60918;-40
2023/02/11 10:33:17;;;;;;;44.00;26.40;;;;;;;1.97;72.17;100086.36;107435;1256;74226;-40
2023/02/11 10:35:46;;;;;;;47.10;28.40;;;;;;;1.97;72.32;100085.49;107458;1257;69745;-40
2023/02/11 10:38:14;;;;;;;49.60;28.10;;;;;;;1.97;72.35;100083.15;107459;1257;73929;-40
2023/02/11 10:40:43;;;;;;;43.00;26.30;;;;;;;1.97;72.46;100082.55;107456;1259;62492;-40
2023/02/11 10:43:14;;;;;;;41.50;26.20;;;;;;;2.01;72.14;100080.32;107436;1255;61553;-40
2023/02/11 10:45:47;;;;;;;45.60;26.80;;;;;;;2.09;72.07;100072.21;107379;1257;73784;-40
2023/02/11 10:48:42;;;;;;;46.50;26.60;;;;;;;2.13;72.04;100062.84;107312;1257;69776;-40
2023/02/11 10:51:33;;;;;;;45.50;27.80;;;;;;;2.14;72.07;100056.30;107312;1257;73866;-41
2023/02/11 10:54:06;;;;;;;48.80;27.50;;;;;;;2.13;72.12;100053.22;107355;1256;60933;-40
2023/02/11 10:56:36;;;;;;;45.10;26.60;;;;;;;2.12;72.08;100051.89;107442;1257;60617;-40
2023/02/11 10:59:29;;;;;;;46.40;26.70;;;;;;;2.13;71.98;100044.23;107426;1256;74278;-40
2023/02/11 11:02:04;;;;;;;50.40;28.60;;;;;;;2.09;72.40;100042.30;107334;1260;68963;-40
2023/02/11 11:04:35;;;;;;;45.90;28.80;;;;;;;2.02;73.16;100037.52;107423;1257;73980;-40
2023/02/11 11:07:26;;;;;;;47.40;28.40;;;;;;;1.98;73.66;100031.54;107395;1254;62352;-40
2023/02/11 11:09:58;;;;;;;50.50;28.60;;;;;;;1.99;73.88;100025.52;107291;1256;61685;-40
2023/02/11 11:12:34;;;;;;;48.60;29.50;;;;;;;1.96;74.45;100017.54;107446;1259;73011;-41
2023/02/11 11:15:09;;;;;;;52.00;28.80;;;;;;;1.94;74.51;100013.50;107494;1257;68767;-40
2023/02/11 11:17:44;;;;;;;45.70;27.40;;;;;;;1.87;74.88;99996.90;107428;1256;73499;-41
2023/02/11 11:20:13;;;;;;;47.70;27.70;;;;;;;1.89;75.16;99990.14;107451;1257;60817;-40
2023/02/11 11:22:41;;;;;;;45.20;26.70;;;;;;;1.94;75.09;99989.60;107461;1256;61797;-40
2023/02/11 11:25:27;;;;;;;49.20;28.90;;;;;;;1.97;74.92;99984.36;107261;1256;73880;-40
2023/02/11 11:27:56;;;;;;;42.50;27.10;;;;;;;1.99;74.64;99975.64;107473;1257;69659;-39
2023/02/11 11:30:32;;;;;;;45.80;27.40;;;;;;;1.99;74.46;99968.84;107368;1257;73842;-40
2023/02/11 11:33:00;;;;;;;45.60;28.20;;;;;;;2.05;74.38;99969.92;107479;1255;62228;-40
2023/02/11 11:35:31;;;;;;;43.60;26.00;;;;;;;2.11;73.85;99955.18;107317;1260;61515;-40